sensor_id;sensor_type;location;lat;lon;timestamp;pressure;altitude;pressure_sealevel;temperature;humidity
77770;BME280;66961;51.482;9.160;2024-03-08T00:01:46;99670.41;;;-0.27;92.93
77770;BME280;66961;51.482;9.160;2024-03-08T00:04:11;99672.22;;;-0.15;92.66
77770;BME280;66961;51.482;9.160;2024-03-08T00:06:36;99665.44;;;-0.17;93.11
77770;BME280;66961;51.482;9.160;2024-03-08T00:09:02;99659.88;;;-0.25;92.64
77770;BME280;66961;51.482;9.160;2024-03-08T00:11:27;99669.28;;;-0.23;93.83
77770;BME280;66961;51.482;9.160;2024-03-08T00:13:52;99674.03;;;-0.29;94.29
77770;BME280;66961;51.482;9.160;2024-03-08T00:16:18;99658.22;;;-0.41;94.93
77770;BME280;66961;51.482;9.160;2024-03-08T00:18:43;99672.00;;;-0.39;94.56
77770;BME280;66961;51.482;9.160;2024-03-08T00:21:09;99664.38;;;-0.42;94.51
77770;BME280;66961;51.482;9.160;2024-03-08T00:23:34;99665.94;;;-0.39;94.45
77770;BME280;66961;51.482;9.160;2024-03-08T00:26:00;99658.59;;;-0.32;93.46
77770;BME280;66961;51.482;9.160;2024-03-08T00:28:25;99650.41;;;-0.26;93.26
77770;BME280;66961;51.482;9.160;2024-03-08T00:30:50;99664.34;;;-0.27;92.81
77770;BME280;66961;51.482;9.160;2024-03-08T00:33:16;99658.50;;;-0.31;92.95
77770;BME280;66961;51.482;9.160;2024-03-08T00:35:41;99643.91;;;-0.34;92.64
77770;BME280;66961;51.482;9.160;2024-03-08T00:38:06;99654.22;;;-0.32;93.12
77770;BME280;66961;51.482;9.160;2024-03-08T00:40:31;99648.72;;;-0.27;92.54
77770;BME280;66961;51.482;9.160;2024-03-08T00:42:57;99653.00;;;-0.26;92.50
77770;BME280;66961;51.482;9.160;2024-03-08T00:45:22;99648.16;;;-0.18;91.77
77770;BME280;66961;51.482;9.160;2024-03-08T00:47:47;99643.78;;;-0.18;91.73
77770;BME280;66961;51.482;9.160;2024-03-08T00:50:12;99634.19;;;-0.17;91.94
77770;BME280;66961;51.482;9.160;2024-03-08T00:52:38;99640.44;;;-0.20;92.06
77770;BME280;66961;51.482;9.160;2024-03-08T00:55:03;99634.47;;;-0.22;92.48
77770;BME280;66961;51.482;9.160;2024-03-08T00:57:29;99631.31;;;-0.27;92.22
77770;BME280;66961;51.482;9.160;2024-03-08T00:59:54;99632.56;;;-0.32;92.75
77770;BME280;66961;51.482;9.160;2024-03-08T01:02:20;99629.50;;;-0.39;92.98
77770;BME280;66961;51.482;9.160;2024-03-08T01:04:45;99628.94;;;-0.44;93.34
77770;BME280;66961;51.482;9.160;2024-03-08T01:07:10;99630.91;;;-0.48;94.11
77770;BME280;66961;51.482;9.160;2024-03-08T01:09:35;99623.50;;;-0.54;94.25
77770;BME280;66961;51.482;9.160;2024-03-08T01:12:01;99626.31;;;-0.57;94.27
77770;BME280;66961;51.482;9.160;2024-03-08T01:14:26;99611.91;;;-0.62;94.73
77770;BME280;66961;51.482;9.160;2024-03-08T01:16:51;99609.88;;;-0.72;94.94
77770;BME280;66961;51.482;9.160;2024-03-08T01:19:17;99607.56;;;-0.76;95.24
77770;BME280;66961;51.482;9.160;2024-03-08T01:21:42;99612.03;;;-0.78;95.64
77770;BME280;66961;51.482;9.160;2024-03-08T01:24:08;99595.66;;;-0.80;95.92
77770;BME280;66961;51.482;9.160;2024-03-08T01:26:33;99593.72;;;-0.77;95.70
77770;BME280;66961;51.482;9.160;2024-03-08T01:28:59;99593.81;;;-0.78;95.76
77770;BME280;66961;51.482;9.160;2024-03-08T01:31:24;99594.00;;;-0.81;95.79
77770;BME280;66961;51.482;9.160;2024-03-08T01:33:49;99591.19;;;-0.78;95.68
77770;BME280;66961;51.482;9.160;2024-03-08T01:36:14;99586.75;;;-0.76;94.97
77770;BME280;66961;51.482;9.160;2024-03-08T01:38:40;99581.53;;;-0.76;94.98
77770;BME280;66961;51.482;9.160;2024-03-08T01:41:05;99570.09;;;-0.74;95.17
77770;BME280;66961;51.482;9.160;2024-03-08T01:43:30;99570.94;;;-0.73;94.74
77770;BME280;66961;51.482;9.160;2024-03-08T01:45:57;99566.66;;;-0.74;94.64
77770;BME280;66961;51.482;9.160;2024-03-08T01:48:23;99558.22;;;-0.78;95.15
77770;BME280;66961;51.482;9.160;2024-03-08T01:50:48;99554.78;;;-0.78;95.41
77770;BME280;66961;51.482;9.160;2024-03-08T01:53:14;99547.69;;;-0.76;94.90
77770;BME280;66961;51.482;9.160;2024-03-08T01:55:39;99547.69;;;-0.76;94.80
77770;BME280;66961;51.482;9.160;2024-03-08T01:58:05;99547.88;;;-0.65;94.34
77770;BME280;66961;51.482;9.160;2024-03-08T02:00:32;99547.03;;;-0.65;93.99
77770;BME280;66961;51.482;9.160;2024-03-08T02:02:58;99541.16;;;-0.55;93.91
77770;BME280;66961;51.482;9.160;2024-03-08T02:05:24;99544.81;;;-0.45;93.38
77770;BME280;66961;51.482;9.160;2024-03-08T02:07:49;99537.44;;;-0.38;92.37
77770;BME280;66961;51.482;9.160;2024-03-08T02:10:15;99532.38;;;-0.27;91.90
77770;BME280;66961;51.482;9.160;2024-03-08T02:12:41;99524.88;;;-0.19;91.24
77770;BME280;66961;51.482;9.160;2024-03-08T02:15:06;99535.09;;;-0.16;90.73
77770;BME280;66961;51.482;9.160;2024-03-08T02:17:32;99526.25;;;-0.13;90.60
77770;BME280;66961;51.482;9.160;2024-03-08T02:19:57;99520.75;;;-0.09;90.05
77770;BME280;66961;51.482;9.160;2024-03-08T02:22:23;99525.13;;;-0.09;90.20
77770;BME280;66961;51.482;9.160;2024-03-08T02:24:48;99527.22;;;-0.02;88.91
77770;BME280;66961;51.482;9.160;2024-03-08T02:27:15;99523.97;;;-0.05;89.24
77770;BME280;66961;51.482;9.160;2024-03-08T02:29:42;99525.84;;;-0.07;89.44
77770;BME280;66961;51.482;9.160;2024-03-08T02:32:07;99519.19;;;-0.11;89.46
77770;BME280;66961;51.482;9.160;2024-03-08T02:34:32;99510.53;;;-0.12;89.36
77770;BME280;66961;51.482;9.160;2024-03-08T02:36:58;99511.66;;;-0.16;89.78
77770;BME280;66961;51.482;9.160;2024-03-08T02:39:23;99513.44;;;-0.16;90.02
77770;BME280;66961;51.482;9.160;2024-03-08T02:41:48;99515.41;;;-0.20;90.29
77770;BME280;66961;51.482;9.160;2024-03-08T02:44:13;99508.09;;;-0.27;90.34
77770;BME280;66961;51.482;9.160;2024-03-08T02:46:39;99512.03;;;-0.35;90.53
77770;BME280;66961;51.482;9.160;2024-03-08T02:49:04;99497.00;;;-0.44;90.88
77770;BME280;66961;51.482;9.160;2024-03-08T02:51:29;99491.69;;;-0.55;91.64
77770;BME280;66961;51.482;9.160;2024-03-08T02:53:54;99501.66;;;-0.61;91.29
77770;BME280;66961;51.482;9.160;2024-03-08T02:56:20;99499.72;;;-0.72;91.45
77770;BME280;66961;51.482;9.160;2024-03-08T02:58:45;99500.88;;;-0.76;92.57
77770;BME280;66961;51.482;9.160;2024-03-08T03:01:10;99503.75;;;-0.81;92.88
77770;BME280;66961;51.482;9.160;2024-03-08T03:03:36;99495.78;;;-0.92;93.54
77770;BME280;66961;51.482;9.160;2024-03-08T03:06:01;99493.56;;;-0.98;94.26
77770;BME280;66961;51.482;9.160;2024-03-08T03:08:26;99489.59;;;-1.04;94.24
77770;BME280;66961;51.482;9.160;2024-03-08T03:10:51;99491.47;;;-1.06;94.62
77770;BME280;66961;51.482;9.160;2024-03-08T03:13:17;99483.69;;;-1.06;94.36
77770;BME280;66961;51.482;9.160;2024-03-08T03:15:42;99481.28;;;-1.09;94.21
77770;BME280;66961;51.482;9.160;2024-03-08T03:18:07;99481.56;;;-1.13;94.40
77770;BME280;66961;51.482;9.160;2024-03-08T03:20:32;99486.84;;;-1.15;94.69
77770;BME280;66961;51.482;9.160;2024-03-08T03:22:59;99484.72;;;-1.22;94.72
77770;BME280;66961;51.482;9.160;2024-03-08T03:25:24;99488.34;;;-1.25;94.61
77770;BME280;66961;51.482;9.160;2024-03-08T03:27:49;99489.94;;;-1.37;94.89
77770;BME280;66961;51.482;9.160;2024-03-08T03:30:15;99493.94;;;-1.45;94.80
77770;BME280;66961;51.482;9.160;2024-03-08T03:32:40;99486.06;;;-1.58;95.33
77770;BME280;66961;51.482;9.160;2024-03-08T03:35:05;99490.81;;;-1.64;95.68
77770;BME280;66961;51.482;9.160;2024-03-08T03:37:31;99486.72;;;-1.69;97.31
77770;BME280;66961;51.482;9.160;2024-03-08T03:39:56;99478.19;;;-1.71;97.38
77770;BME280;66961;51.482;9.160;2024-03-08T03:42:21;99481.34;;;-1.65;97.09
77770;BME280;66961;51.482;9.160;2024-03-08T03:44:47;99488.28;;;-1.66;96.84
77770;BME280;66961;51.482;9.160;2024-03-08T03:47:14;99478.91;;;-1.54;97.21
77770;BME280;66961;51.482;9.160;2024-03-08T03:49:39;99470.72;;;-1.48;97.36
77770;BME280;66961;51.482;9.160;2024-03-08T03:52:05;99469.44;;;-1.55;97.08
77770;BME280;66961;51.482;9.160;2024-03-08T03:54:30;99476.59;;;-1.59;96.16
77770;BME280;66961;51.482;9.160;2024-03-08T03:56:56;99468.91;;;-1.60;97.24
77770;BME280;66961;51.482;9.160;2024-03-08T03:59:21;99462.97;;;-1.62;97.46
77770;BME280;66961;51.482;9.160;2024-03-08T04:01:46;99456.91;;;-1.49;96.97
77770;BME280;66961;51.482;9.160;2024-03-08T04:04:12;99466.38;;;-1.48;97.06
77770;BME280;66961;51.482;9.160;2024-03-08T04:06:37;99455.22;;;-1.50;97.29
77770;BME280;66961;51.482;9.160;2024-03-08T04:09:02;99451.06;;;-1.52;96.69
77770;BME280;66961;51.482;9.160;2024-03-08T04:11:28;99454.25;;;-1.61;97.05
77770;BME280;66961;51.482;9.160;2024-03-08T04:13:53;99456.56;;;-1.71;97.48
77770;BME280;66961;51.482;9.160;2024-03-08T04:16:18;99461.94;;;-1.74;97.50
77770;BME280;66961;51.482;9.160;2024-03-08T04:18:43;99454.59;;;-1.82;98.56
77770;BME280;66961;51.482;9.160;2024-03-08T04:21:09;99446.06;;;-1.84;98.81
77770;BME280;66961;51.482;9.160;2024-03-08T04:23:34;99440.13;;;-1.86;98.59
77770;BME280;66961;51.482;9.160;2024-03-08T04:25:59;99449.03;;;-1.90;99.48
77770;BME280;66961;51.482;9.160;2024-03-08T04:28:25;99442.63;;;-1.98;98.80
77770;BME280;66961;51.482;9.160;2024-03-08T04:30:50;99443.38;;;-1.96;99.83
77770;BME280;66961;51.482;9.160;2024-03-08T04:33:15;99441.78;;;-1.99;99.71
77770;BME280;66961;51.482;9.160;2024-03-08T04:35:40;99436.78;;;-2.02;99.54
77770;BME280;66961;51.482;9.160;2024-03-08T04:38:06;99434.91;;;-2.00;100.00
77770;BME280;66961;51.482;9.160;2024-03-08T04:40:31;99429.81;;;-2.02;99.62
77770;BME280;66961;51.482;9.160;2024-03-08T04:42:58;99430.09;;;-2.06;100.00
77770;BME280;66961;51.482;9.160;2024-03-08T04:45:24;99434.44;;;-2.07;100.00
77770;BME280;66961;51.482;9.160;2024-03-08T04:47:49;99421.78;;;-2.11;99.32
77770;BME280;66961;51.482;9.160;2024-03-08T04:50:14;99428.06;;;-2.15;99.70
77770;BME280;66961;51.482;9.160;2024-03-08T04:52:40;99425.84;;;-2.21;100.00
77770;BME280;66961;51.482;9.160;2024-03-08T04:55:05;99426.75;;;-2.22;100.00
77770;BME280;66961;51.482;9.160;2024-03-08T04:57:31;99420.81;;;-2.24;100.00
77770;BME280;66961;51.482;9.160;2024-03-08T04:59:56;99421.00;;;-2.27;100.00
77770;BME280;66961;51.482;9.160;2024-03-08T05:02:21;99413.31;;;-2.29;100.00
77770;BME280;66961;51.482;9.160;2024-03-08T05:04:47;99417.38;;;-2.25;100.00
77770;BME280;66961;51.482;9.160;2024-03-08T05:07:12;99407.94;;;-2.26;100.00
77770;BME280;66961;51.482;9.160;2024-03-08T05:09:37;99413.69;;;-2.21;100.00
77770;BME280;66961;51.482;9.160;2024-03-08T05:12:02;99419.63;;;-2.19;100.00
77770;BME280;66961;51.482;9.160;2024-03-08T05:14:28;99414.16;;;-2.14;100.00
77770;BME280;66961;51.482;9.160;2024-03-08T05:16:53;99411.81;;;-2.05;100.00
77770;BME280;66961;51.482;9.160;2024-03-08T05:19:20;99416.28;;;-1.92;99.97
77770;BME280;66961;51.482;9.160;2024-03-08T05:21:49;99413.69;;;-1.92;99.08
77770;BME280;66961;51.482;9.160;2024-03-08T05:24:15;99411.56;;;-1.86;99.22
77770;BME280;66961;51.482;9.160;2024-03-08T05:26:40;99406.81;;;-1.79;99.14
77770;BME280;66961;51.482;9.160;2024-03-08T05:29:06;99409.78;;;-1.71;97.98
77770;BME280;66961;51.482;9.160;2024-03-08T05:31:46;99405.53;;;-1.72;97.47
77770;BME280;66961;51.482;9.160;2024-03-08T05:34:12;99403.75;;;-1.72;97.70
77770;BME280;66961;51.482;9.160;2024-03-08T05:36:37;99411.19;;;-1.80;97.91
77770;BME280;66961;51.482;9.160;2024-03-08T05:39:02;99403.75;;;-1.86;98.22
77770;BME280;66961;51.482;9.160;2024-03-08T05:41:28;99404.88;;;-1.90;99.09
77770;BME280;66961;51.482;9.160;2024-03-08T05:43:53;99407.47;;;-1.90;98.46
77770;BME280;66961;51.482;9.160;2024-03-08T05:46:18;99411.09;;;-1.92;98.55
77770;BME280;66961;51.482;9.160;2024-03-08T05:48:43;99401.06;;;-1.98;99.27
77770;BME280;66961;51.482;9.160;2024-03-08T05:51:09;99405.25;;;-1.96;99.96
77770;BME280;66961;51.482;9.160;2024-03-08T05:53:34;99402.75;;;-1.97;99.93
77770;BME280;66961;51.482;9.160;2024-03-08T05:55:59;99400.50;;;-2.04;99.52
77770;BME280;66961;51.482;9.160;2024-03-08T05:58:24;99403.09;;;-2.04;99.23
77770;BME280;66961;51.482;9.160;2024-03-08T06:00:50;99403.94;;;-2.03;99.36
77770;BME280;66961;51.482;9.160;2024-03-08T06:03:15;99405.25;;;-2.10;99.56
77770;BME280;66961;51.482;9.160;2024-03-08T06:05:40;99406.81;;;-2.08;100.00
77770;BME280;66961;51.482;9.160;2024-03-08T06:08:06;99403.19;;;-2.05;100.00
77770;BME280;66961;51.482;9.160;2024-03-08T06:10:31;99396.16;;;-2.03;100.00
77770;BME280;66961;51.482;9.160;2024-03-08T06:12:56;99401.34;;;-2.03;100.00
77770;BME280;66961;51.482;9.160;2024-03-08T06:15:21;99402.94;;;-2.01;99.72
77770;BME280;66961;51.482;9.160;2024-03-08T06:17:47;99412.47;;;-2.01;100.00
77770;BME280;66961;51.482;9.160;2024-03-08T06:20:12;99406.91;;;-1.95;100.00
77770;BME280;66961;51.482;9.160;2024-03-08T06:22:41;99415.53;;;-1.80;99.74
77770;BME280;66961;51.482;9.160;2024-03-08T06:25:11;99407.19;;;-1.71;98.84
77770;BME280;66961;51.482;9.160;2024-03-08T06:27:36;99410.44;;;-1.68;97.87
77770;BME280;66961;51.482;9.160;2024-03-08T06:30:02;99410.72;;;-1.58;98.33
77770;BME280;66961;51.482;9.160;2024-03-08T06:32:27;99411.88;;;-1.49;97.43
77770;BME280;66961;51.482;9.160;2024-03-08T06:34:52;99412.22;;;-1.41;96.82
77770;BME280;66961;51.482;9.160;2024-03-08T06:37:17;99417.88;;;-1.35;96.33
77770;BME280;66961;51.482;9.160;2024-03-08T06:39:43;99411.38;;;-1.27;96.91
77770;BME280;66961;51.482;9.160;2024-03-08T06:42:08;99413.03;;;-1.26;96.20
77770;BME280;66961;51.482;9.160;2024-03-08T06:44:33;99411.00;;;-1.21;95.88
77770;BME280;66961;51.482;9.160;2024-03-08T06:46:58;99413.84;;;-1.12;95.82
77770;BME280;66961;51.482;9.160;2024-03-08T06:49:24;99413.47;;;-1.06;95.83
77770;BME280;66961;51.482;9.160;2024-03-08T06:51:49;99415.63;;;-1.00;95.89
77770;BME280;66961;51.482;9.160;2024-03-08T06:54:14;99408.28;;;-0.93;95.28
77770;BME280;66961;51.482;9.160;2024-03-08T06:56:39;99409.53;;;-0.86;95.46
77770;BME280;66961;51.482;9.160;2024-03-08T06:59:05;99405.63;;;-0.79;94.59
77770;BME280;66961;51.482;9.160;2024-03-08T07:01:30;99400.66;;;-0.69;94.09
77770;BME280;66961;51.482;9.160;2024-03-08T07:03:55;99413.16;;;-0.61;93.99
77770;BME280;66961;51.482;9.160;2024-03-08T07:06:20;99403.19;;;-0.55;93.80
77770;BME280;66961;51.482;9.160;2024-03-08T07:08:46;99406.91;;;-0.46;93.05
77770;BME280;66961;51.482;9.160;2024-03-08T07:11:11;99412.44;;;-0.38;92.98
77770;BME280;66961;51.482;9.160;2024-03-08T07:13:37;99403.28;;;-0.31;92.36
77770;BME280;66961;51.482;9.160;2024-03-08T07:16:02;99407.38;;;-0.27;91.98
77770;BME280;66961;51.482;9.160;2024-03-08T07:18:28;99407.69;;;-0.19;91.99
77770;BME280;66961;51.482;9.160;2024-03-08T07:20:54;99404.47;;;-0.10;90.77
77770;BME280;66961;51.482;9.160;2024-03-08T07:23:19;99406.84;;;-0.07;90.95
77770;BME280;66961;51.482;9.160;2024-03-08T07:25:45;99406.19;;;0.03;90.76
77770;BME280;66961;51.482;9.160;2024-03-08T07:28:10;99398.69;;;0.11;90.75
77770;BME280;66961;51.482;9.160;2024-03-08T07:30:35;99404.00;;;0.22;90.19
77770;BME280;66961;51.482;9.160;2024-03-08T07:33:00;99393.16;;;0.28;90.38
77770;BME280;66961;51.482;9.160;2024-03-08T07:35:26;99388.34;;;0.35;89.93
77770;BME280;66961;51.482;9.160;2024-03-08T07:37:51;99392.91;;;0.44;89.46
77770;BME280;66961;51.482;9.160;2024-03-08T07:40:16;99381.94;;;0.51;89.38
77770;BME280;66961;51.482;9.160;2024-03-08T07:42:41;99384.72;;;0.61;89.22
77770;BME280;66961;51.482;9.160;2024-03-08T07:45:07;99375.50;;;0.68;88.22
77770;BME280;66961;51.482;9.160;2024-03-08T07:47:33;99387.69;;;0.80;88.31
77770;BME280;66961;51.482;9.160;2024-03-08T07:49:58;99382.13;;;0.85;87.87
77770;BME280;66961;51.482;9.160;2024-03-08T07:52:23;99381.91;;;0.88;87.65
77770;BME280;66961;51.482;9.160;2024-03-08T07:54:48;99383.25;;;0.93;87.73
77770;BME280;66961;51.482;9.160;2024-03-08T07:57:14;99388.25;;;0.96;88.32
77770;BME280;66961;51.482;9.160;2024-03-08T07:59:39;99387.09;;;1.01;87.51
77770;BME280;66961;51.482;9.160;2024-03-08T08:02:04;99391.72;;;1.08;87.68
77770;BME280;66961;51.482;9.160;2024-03-08T08:04:30;99378.81;;;1.18;87.87
77770;BME280;66961;51.482;9.160;2024-03-08T08:06:55;99383.50;;;1.25;87.20
77770;BME280;66961;51.482;9.160;2024-03-08T08:09:21;99385.75;;;1.30;86.63
77770;BME280;66961;51.482;9.160;2024-03-08T08:11:46;99376.03;;;1.32;87.11
77770;BME280;66961;51.482;9.160;2024-03-08T08:14:11;99381.63;;;1.39;87.19
77770;BME280;66961;51.482;9.160;2024-03-08T08:16:37;99372.06;;;1.50;86.83
77770;BME280;66961;51.482;9.160;2024-03-08T08:19:03;99376.78;;;1.56;86.80
77770;BME280;66961;51.482;9.160;2024-03-08T08:21:28;99368.38;;;1.64;86.58
77770;BME280;66961;51.482;9.160;2024-03-08T08:23:53;99359.84;;;1.62;84.40
77770;BME280;66961;51.482;9.160;2024-03-08T08:26:18;99354.72;;;1.60;85.10
77770;BME280;66961;51.482;9.160;2024-03-08T08:28:44;99359.38;;;1.68;84.39
77770;BME280;66961;51.482;9.160;2024-03-08T08:31:09;99351.66;;;1.78;84.60
77770;BME280;66961;51.482;9.160;2024-03-08T08:33:34;99350.72;;;1.79;83.33
77770;BME280;66961;51.482;9.160;2024-03-08T08:35:59;99351.19;;;1.84;84.03
77770;BME280;66961;51.482;9.160;2024-03-08T08:38:25;99336.97;;;1.99;83.75
77770;BME280;66961;51.482;9.160;2024-03-08T08:40:50;99341.31;;;2.10;83.51
77770;BME280;66961;51.482;9.160;2024-03-08T08:43:15;99342.88;;;2.23;83.38
77770;BME280;66961;51.482;9.160;2024-03-08T08:45:40;99334.31;;;2.21;82.05
77770;BME280;66961;51.482;9.160;2024-03-08T08:48:06;99343.47;;;2.27;81.90
77770;BME280;66961;51.482;9.160;2024-03-08T08:50:31;99337.16;;;2.41;81.95
77770;BME280;66961;51.482;9.160;2024-03-08T08:52:57;99342.94;;;2.55;81.89
77770;BME280;66961;51.482;9.160;2024-03-08T08:55:22;99333.06;;;2.59;81.17
77770;BME280;66961;51.482;9.160;2024-03-08T08:57:48;99336.47;;;2.71;80.57
77770;BME280;66961;51.482;9.160;2024-03-08T09:00:13;99325.84;;;2.83;80.71
77770;BME280;66961;51.482;9.160;2024-03-08T09:02:38;99338.41;;;3.01;79.57
77770;BME280;66961;51.482;9.160;2024-03-08T09:05:04;99327.59;;;3.15;78.06
77770;BME280;66961;51.482;9.160;2024-03-08T09:07:30;99330.09;;;3.16;78.29
77770;BME280;66961;51.482;9.160;2024-03-08T09:09:55;99324.94;;;3.26;77.72
77770;BME280;66961;51.482;9.160;2024-03-08T09:12:20;99315.09;;;3.39;78.86
77770;BME280;66961;51.482;9.160;2024-03-08T09:14:45;99319.19;;;3.53;77.28
77770;BME280;66961;51.482;9.160;2024-03-08T09:17:11;99313.38;;;3.49;75.33
77770;BME280;66961;51.482;9.160;2024-03-08T09:19:36;99314.41;;;3.67;77.82
77770;BME280;66961;51.482;9.160;2024-03-08T09:22:01;99312.47;;;3.90;76.10
77770;BME280;66961;51.482;9.160;2024-03-08T09:24:26;99314.19;;;4.01;75.53
77770;BME280;66961;51.482;9.160;2024-03-08T09:26:52;99309.66;;;4.13;75.87
77770;BME280;66961;51.482;9.160;2024-03-08T09:29:17;99306.66;;;4.27;74.55
77770;BME280;66961;51.482;9.160;2024-03-08T09:31:42;99301.16;;;4.40;73.89
77770;BME280;66961;51.482;9.160;2024-03-08T09:34:08;99292.16;;;4.32;73.16
77770;BME280;66961;51.482;9.160;2024-03-08T09:36:33;99291.91;;;4.45;73.29
77770;BME280;66961;51.482;9.160;2024-03-08T09:38:58;99288.63;;;4.62;73.25
77770;BME280;66961;51.482;9.160;2024-03-08T09:41:23;99286.69;;;4.55;71.72
77770;BME280;66961;51.482;9.160;2024-03-08T09:43:49;99283.38;;;4.53;71.07
77770;BME280;66961;51.482;9.160;2024-03-08T09:46:14;99275.09;;;4.57;71.13
77770;BME280;66961;51.482;9.160;2024-03-08T09:48:40;99273.84;;;4.61;71.40
77770;BME280;66961;51.482;9.160;2024-03-08T09:51:06;99273.16;;;4.69;72.37
77770;BME280;66961;51.482;9.160;2024-03-08T09:53:31;99268.72;;;4.79;70.42
77770;BME280;66961;51.482;9.160;2024-03-08T09:55:56;99272.19;;;4.89;70.67
77770;BME280;66961;51.482;9.160;2024-03-08T09:58:22;99263.63;;;5.07;70.20
77770;BME280;66961;51.482;9.160;2024-03-08T10:00:47;99254.72;;;5.27;70.62
77770;BME280;66961;51.482;9.160;2024-03-08T10:03:13;99260.53;;;5.21;68.38
77770;BME280;66961;51.482;9.160;2024-03-08T10:05:38;99260.78;;;5.37;67.57
77770;BME280;66961;51.482;9.160;2024-03-08T10:08:04;99255.78;;;5.44;67.03
77770;BME280;66961;51.482;9.160;2024-03-08T10:10:30;99234.84;;;5.61;67.68
77770;BME280;66961;51.482;9.160;2024-03-08T10:12:55;99232.56;;;5.76;66.80
77770;BME280;66961;51.482;9.160;2024-03-08T10:15:21;99231.56;;;5.77;68.06
77770;BME280;66961;51.482;9.160;2024-03-08T10:17:46;99216.13;;;6.02;67.40
77770;BME280;66961;51.482;9.160;2024-03-08T10:20:17;99216.44;;;5.98;63.04
77770;BME280;66961;51.482;9.160;2024-03-08T10:22:43;99201.91;;;5.94;66.44
77770;BME280;66961;51.482;9.160;2024-03-08T10:25:10;99213.06;;;6.06;65.08
77770;BME280;66961;51.482;9.160;2024-03-08T10:27:35;99206.00;;;6.24;65.38
77770;BME280;66961;51.482;9.160;2024-03-08T10:30:02;99207.38;;;6.46;65.06
77770;BME280;66961;51.482;9.160;2024-03-08T10:32:27;99200.47;;;6.63;65.00
77770;BME280;66961;51.482;9.160;2024-03-08T10:34:52;99199.03;;;6.69;62.95
77770;BME280;66961;51.482;9.160;2024-03-08T10:37:21;99201.28;;;6.46;62.79
77770;BME280;66961;51.482;9.160;2024-03-08T10:40:00;99197.13;;;6.25;62.30
77770;BME280;66961;51.482;9.160;2024-03-08T10:42:28;99198.34;;;6.49;62.78
77770;BME280;66961;51.482;9.160;2024-03-08T10:45:05;99192.25;;;6.48;62.68
77770;BME280;66961;51.482;9.160;2024-03-08T10:47:36;99206.25;;;6.49;63.19
77770;BME280;66961;51.482;9.160;2024-03-08T10:50:18;99189.47;;;6.68;61.77
77770;BME280;66961;51.482;9.160;2024-03-08T10:52:43;99181.88;;;6.64;60.57
77770;BME280;66961;51.482;9.160;2024-03-08T10:55:09;99174.44;;;6.60;61.21
77770;BME280;66961;51.482;9.160;2024-03-08T10:57:35;99185.16;;;6.84;60.55
77770;BME280;66961;51.482;9.160;2024-03-08T11:00:02;99169.28;;;6.76;60.40
77770;BME280;66961;51.482;9.160;2024-03-08T11:02:27;99169.75;;;6.97;61.72
77770;BME280;66961;51.482;9.160;2024-03-08T11:04:52;99174.41;;;7.04;60.50
77770;BME280;66961;51.482;9.160;2024-03-08T11:07:19;99169.31;;;7.02;60.03
77770;BME280;66961;51.482;9.160;2024-03-08T11:09:44;99160.63;;;7.10;60.18
77770;BME280;66961;51.482;9.160;2024-03-08T11:12:27;99150.91;;;7.10;60.36
77770;BME280;66961;51.482;9.160;2024-03-08T11:14:53;99157.13;;;7.01;58.34
77770;BME280;66961;51.482;9.160;2024-03-08T11:19:58;99148.16;;;6.94;58.83
77770;BME280;66961;51.482;9.160;2024-03-08T11:22:28;99144.66;;;7.11;59.72
77770;BME280;66961;51.482;9.160;2024-03-08T11:24:58;99139.28;;;7.21;59.15
77770;BME280;66961;51.482;9.160;2024-03-08T11:27:29;99141.09;;;7.28;60.08
77770;BME280;66961;51.482;9.160;2024-03-08T11:30:02;99131.75;;;7.34;58.01
77770;BME280;66961;51.482;9.160;2024-03-08T11:32:29;99130.22;;;7.57;58.63
77770;BME280;66961;51.482;9.160;2024-03-08T11:34:54;99136.91;;;7.94;57.36
77770;BME280;66961;51.482;9.160;2024-03-08T11:37:21;99118.97;;;8.06;58.10
77770;BME280;66961;51.482;9.160;2024-03-08T11:39:53;99112.81;;;7.89;56.38
77770;BME280;66961;51.482;9.160;2024-03-08T11:42:19;99113.16;;;7.78;56.92
77770;BME280;66961;51.482;9.160;2024-03-08T11:44:45;99114.66;;;7.96;56.55
77770;BME280;66961;51.482;9.160;2024-03-08T11:47:11;99103.41;;;7.86;56.15
77770;BME280;66961;51.482;9.160;2024-03-08T11:49:37;99110.66;;;7.84;57.51
77770;BME280;66961;51.482;9.160;2024-03-08T11:52:03;99108.97;;;7.59;56.79
77770;BME280;66961;51.482;9.160;2024-03-08T11:54:29;99098.94;;;7.71;56.72
77770;BME280;66961;51.482;9.160;2024-03-08T11:56:54;99095.88;;;8.08;57.59
77770;BME280;66961;51.482;9.160;2024-03-08T11:59:19;99093.88;;;8.02;56.88
77770;BME280;66961;51.482;9.160;2024-03-08T12:02:05;99087.13;;;7.99;57.78
77770;BME280;66961;51.482;9.160;2024-03-08T12:04:31;99092.19;;;7.68;57.49
77770;BME280;66961;51.482;9.160;2024-03-08T12:07:00;99070.94;;;7.94;56.41
77770;BME280;66961;51.482;9.160;2024-03-08T12:09:25;99082.97;;;7.88;57.51
77770;BME280;66961;51.482;9.160;2024-03-08T12:11:51;99071.78;;;8.03;57.40
77770;BME280;66961;51.482;9.160;2024-03-08T12:14:17;99077.91;;;8.19;55.99
77770;BME280;66961;51.482;9.160;2024-03-08T12:16:42;99081.56;;;8.43;57.11
77770;BME280;66961;51.482;9.160;2024-03-08T12:19:07;99061.22;;;8.76;55.18
77770;BME280;66961;51.482;9.160;2024-03-08T12:21:33;99053.81;;;8.55;54.55
77770;BME280;66961;51.482;9.160;2024-03-08T12:24:07;99060.41;;;8.51;56.82
77770;BME280;66961;51.482;9.160;2024-03-08T12:26:32;99050.00;;;8.74;52.95
77770;BME280;66961;51.482;9.160;2024-03-08T12:29:26;99045.41;;;9.15;53.92
77770;BME280;66961;51.482;9.160;2024-03-08T12:31:52;99040.75;;;8.78;52.86
77770;BME280;66961;51.482;9.160;2024-03-08T12:34:18;99035.56;;;8.84;54.83
77770;BME280;66961;51.482;9.160;2024-03-08T12:36:48;99025.41;;;9.12;54.32
77770;BME280;66961;51.482;9.160;2024-03-08T12:39:16;99029.44;;;8.92;53.00
77770;BME280;66961;51.482;9.160;2024-03-08T12:41:41;99032.22;;;9.07;52.12
77770;BME280;66961;51.482;9.160;2024-03-08T12:44:07;99023.47;;;9.37;54.57
77770;BME280;66961;51.482;9.160;2024-03-08T12:46:32;99018.22;;;8.90;51.58
77770;BME280;66961;51.482;9.160;2024-03-08T12:48:57;99018.13;;;8.75;53.64
77770;BME280;66961;51.482;9.160;2024-03-08T12:51:23;99019.47;;;8.63;54.75
77770;BME280;66961;51.482;9.160;2024-03-08T12:53:48;99016.53;;;8.97;54.09
77770;BME280;66961;51.482;9.160;2024-03-08T12:56:20;99011.72;;;9.40;54.66
77770;BME280;66961;51.482;9.160;2024-03-08T12:58:53;99011.44;;;8.95;53.06
77770;BME280;66961;51.482;9.160;2024-03-08T13:01:18;99006.78;;;9.06;53.13